createdAt,value
2022-07-31T00:00:24.235Z,100.00
2022-07-31T00:02:52.561Z,100.00
2022-07-31T00:05:20.575Z,100.00
2022-07-31T00:07:48.538Z,100.00
2022-07-31T00:10:16.717Z,100.00
2022-07-31T00:12:46.157Z,100.00
2022-07-31T00:15:14.115Z,100.00
2022-07-31T00:17:43.242Z,100.00
2022-07-31T00:20:14.144Z,100.00
2022-07-31T00:22:42.280Z,100.00
2022-07-31T00:25:11.121Z,100.00
2022-07-31T00:27:39.562Z,100.00
2022-07-31T00:30:12.528Z,100.00
2022-07-31T00:32:40.589Z,100.00
2022-07-31T00:35:09.859Z,100.00
2022-07-31T00:37:40.301Z,100.00
2022-07-31T00:40:11.772Z,100.00
2022-07-31T00:42:40.070Z,100.00
2022-07-31T00:45:10.800Z,100.00
2022-07-31T00:47:41.829Z,100.00
2022-07-31T00:50:10.829Z,100.00
2022-07-31T00:52:38.770Z,100.00
2022-07-31T00:55:07.762Z,100.00
2022-07-31T00:57:35.756Z,100.00
2022-07-31T01:00:03.822Z,100.00
2022-07-31T01:02:33.220Z,100.00
2022-07-31T01:05:01.139Z,100.00
2022-07-31T01:07:29.095Z,100.00
2022-07-31T01:09:57.378Z,100.00
2022-07-31T01:12:30.342Z,100.00
2022-07-31T01:14:59.699Z,100.00
2022-07-31T01:17:29.261Z,100.00
2022-07-31T01:19:59.337Z,100.00
2022-07-31T01:22:50.626Z,100.00
2022-07-31T01:25:29.898Z,100.00
2022-07-31T01:28:04.462Z,100.00
2022-07-31T01:30:36.914Z,100.00
2022-07-31T01:33:09.375Z,100.00
2022-07-31T01:35:42.486Z,100.00
2022-07-31T01:38:14.602Z,100.00
2022-07-31T01:40:45.561Z,100.00
2022-07-31T01:43:16.515Z,100.00
2022-07-31T01:45:49.002Z,100.00
2022-07-31T01:48:17.246Z,100.00
2022-07-31T01:50:46.706Z,100.00
2022-07-31T01:53:17.573Z,100.00
2022-07-31T01:55:56.708Z,100.00
2022-07-31T01:58:36.037Z,100.00
2022-07-31T02:01:08.289Z,100.00
2022-07-31T02:03:42.690Z,100.00
2022-07-31T02:06:13.723Z,100.00
2022-07-31T02:08:41.950Z,100.00
2022-07-31T02:11:10.002Z,100.00
2022-07-31T02:13:38.906Z,100.00
2022-07-31T02:16:08.333Z,100.00
2022-07-31T02:18:37.175Z,100.00
2022-07-31T02:21:05.200Z,100.00
2022-07-31T02:23:33.228Z,100.00
2022-07-31T02:26:02.022Z,100.00
2022-07-31T02:28:30.721Z,100.00
2022-07-31T02:30:59.214Z,100.00
2022-07-31T02:33:29.051Z,100.00
2022-07-31T02:35:57.782Z,100.00
2022-07-31T02:38:28.017Z,100.00
2022-07-31T02:40:59.687Z,100.00
2022-07-31T02:43:27.909Z,100.00
2022-07-31T02:45:56.333Z,100.00
2022-07-31T02:48:25.271Z,100.00
2022-07-31T02:50:54.867Z,100.00
2022-07-31T02:53:22.841Z,100.00
2022-07-31T02:55:51.361Z,100.00
2022-07-31T02:58:19.563Z,100.00
2022-07-31T03:00:47.635Z,100.00
2022-07-31T03:03:15.698Z,100.00
2022-07-31T03:05:43.612Z,100.00
2022-07-31T03:08:12.922Z,100.00
2022-07-31T03:10:40.837Z,100.00
2022-07-31T03:13:08.965Z,100.00
2022-07-31T03:15:37.775Z,100.00
2022-07-31T03:18:11.294Z,100.00
2022-07-31T03:20:40.734Z,100.00
2022-07-31T03:23:08.810Z,100.00
2022-07-31T03:25:38.262Z,100.00
2022-07-31T03:28:06.215Z,100.00
2022-07-31T03:30:34.151Z,100.00
2022-07-31T03:33:03.635Z,100.00
2022-07-31T03:35:31.902Z,100.00
2022-07-31T03:37:59.869Z,100.00
2022-07-31T03:40:27.831Z,100.00
2022-07-31T03:42:57.808Z,100.00
2022-07-31T03:45:25.973Z,100.00
2022-07-31T03:47:54.106Z,100.00
2022-07-31T03:50:22.582Z,100.00
2022-07-31T03:52:51.129Z,100.00
2022-07-31T03:55:19.051Z,100.00
2022-07-31T03:57:47.648Z,100.00
2022-07-31T04:00:20.581Z,100.00
2022-07-31T04:02:48.658Z,100.00
2022-07-31T04:05:16.646Z,100.00
2022-07-31T04:07:44.606Z,100.00
2022-07-31T04:10:12.538Z,100.00
2022-07-31T04:12:40.522Z,100.00
2022-07-31T04:15:09.001Z,100.00
2022-07-31T04:17:38.738Z,100.00
2022-07-31T04:20:08.501Z,100.00
2022-07-31T04:22:36.551Z,100.00
2022-07-31T04:25:05.302Z,100.00
2022-07-31T04:27:33.486Z,100.00
2022-07-31T04:30:01.432Z,100.00
2022-07-31T04:32:31.009Z,100.00
2022-07-31T04:35:00.350Z,100.00
2022-07-31T04:37:28.286Z,100.00
2022-07-31T04:39:56.363Z,100.00
2022-07-31T04:42:24.382Z,100.00
2022-07-31T04:44:52.406Z,100.00
2022-07-31T04:47:22.359Z,100.00
2022-07-31T04:49:50.312Z,100.00
2022-07-31T04:52:19.822Z,100.00
2022-07-31T04:54:47.823Z,100.00
2022-07-31T04:57:19.862Z,100.00
2022-07-31T05:00:00.302Z,100.00
2022-07-31T05:02:29.066Z,100.00
2022-07-31T05:04:57.605Z,100.00
2022-07-31T05:07:28.890Z,100.00
2022-07-31T05:09:57.410Z,100.00
2022-07-31T05:12:25.460Z,100.00
2022-07-31T05:14:53.547Z,100.00
2022-07-31T05:17:21.666Z,100.00
2022-07-31T05:19:49.690Z,100.00
2022-07-31T05:22:17.602Z,100.00
2022-07-31T05:24:48.267Z,100.00
2022-07-31T05:27:16.306Z,100.00
2022-07-31T05:29:44.242Z,100.00
2022-07-31T05:32:12.606Z,100.00
2022-07-31T05:34:40.753Z,100.00
2022-07-31T05:37:08.726Z,100.00
2022-07-31T05:39:36.921Z,100.00
2022-07-31T05:42:07.859Z,100.00
2022-07-31T05:44:35.882Z,100.00
2022-07-31T05:47:03.824Z,100.00
2022-07-31T05:49:31.788Z,100.00
2022-07-31T05:51:59.783Z,100.00
2022-07-31T05:54:27.838Z,100.00
2022-07-31T05:56:55.820Z,100.00
2022-07-31T05:59:25.118Z,100.00
2022-07-31T06:01:53.197Z,100.00
2022-07-31T06:04:21.170Z,100.00
2022-07-31T06:06:49.121Z,100.00
2022-07-31T06:09:17.039Z,100.00
2022-07-31T06:11:44.994Z,100.00
2022-07-31T06:14:13.163Z,100.00
2022-07-31T06:16:42.462Z,100.00
2022-07-31T06:19:10.390Z,100.00
2022-07-31T06:21:38.366Z,100.00
2022-07-31T06:24:07.198Z,100.00
2022-07-31T06:26:37.047Z,100.00
2022-07-31T06:29:05.288Z,100.00
2022-07-31T06:31:33.227Z,100.00
2022-07-31T06:34:02.573Z,100.00
2022-07-31T06:36:30.491Z,100.00
2022-07-31T06:38:58.451Z,100.00
2022-07-31T06:41:43.650Z,100.00
2022-07-31T06:44:11.646Z,100.00
2022-07-31T06:46:39.629Z,100.00
2022-07-31T06:49:18.944Z,100.00
2022-07-31T06:51:46.977Z,100.00
2022-07-31T06:54:14.892Z,100.00
2022-07-31T06:56:42.827Z,100.00
2022-07-31T06:59:10.870Z,100.00
2022-07-31T07:01:39.015Z,100.00
2022-07-31T07:04:07.089Z,100.00
2022-07-31T07:06:36.485Z,100.00
2022-07-31T07:09:04.656Z,100.00
2022-07-31T07:11:32.661Z,100.00
2022-07-31T07:14:00.718Z,100.00
2022-07-31T07:16:28.897Z,100.00
2022-07-31T07:18:58.114Z,100.00
2022-07-31T07:21:26.354Z,100.00
2022-07-31T07:23:55.641Z,100.00
2022-07-31T07:26:23.694Z,100.00
2022-07-31T07:28:51.943Z,99.12
2022-07-31T07:31:19.869Z,100.00
2022-07-31T07:33:48.914Z,100.00
2022-07-31T07:36:22.484Z,100.00
2022-07-31T07:38:53.701Z,100.00
2022-07-31T07:41:25.189Z,100.00
2022-07-31T07:43:53.450Z,99.79
2022-07-31T07:46:22.208Z,94.71
2022-07-31T07:48:51.975Z,96.08
2022-07-31T07:51:20.839Z,91.60
2022-07-31T07:53:48.896Z,90.42
2022-07-31T07:56:17.176Z,90.33
2022-07-31T07:58:46.573Z,90.57
2022-07-31T08:01:14.878Z,94.40
2022-07-31T08:03:50.377Z,92.61
2022-07-31T08:06:20.292Z,90.87
2022-07-31T08:08:48.303Z,91.89
2022-07-31T08:11:17.088Z,91.08
2022-07-31T08:13:50.574Z,91.77
2022-07-31T08:16:19.921Z,94.48
2022-07-31T08:18:47.993Z,91.54
2022-07-31T08:21:15.917Z,95.37
2022-07-31T08:23:43.868Z,92.95
2022-07-31T08:26:13.127Z,93.81
2022-07-31T08:28:50.709Z,92.66
2022-07-31T08:31:20.717Z,90.64
2022-07-31T08:33:48.724Z,93.14
2022-07-31T08:36:16.645Z,92.00
2022-07-31T08:38:44.584Z,91.77
2022-07-31T08:41:14.032Z,86.16
2022-07-31T08:44:03.355Z,86.62
2022-07-31T08:46:33.170Z,84.98
2022-07-31T08:49:03.857Z,83.84
2022-07-31T08:51:34.790Z,83.25
2022-07-31T08:54:20.865Z,81.86
2022-07-31T08:56:52.644Z,77.59
2022-07-31T08:59:22.022Z,81.54
2022-07-31T09:01:51.533Z,80.42
2022-07-31T09:04:19.459Z,83.31
2022-07-31T09:06:47.414Z,79.99
2022-07-31T09:09:16.693Z,77.00
2022-07-31T09:11:48.293Z,83.71
2022-07-31T09:14:25.878Z,79.90
2022-07-31T09:16:55.639Z,82.73
2022-07-31T09:19:51.892Z,75.60
2022-07-31T09:22:21.689Z,82.98
2022-07-31T09:24:49.717Z,76.79
2022-07-31T09:27:18.458Z,77.63
2022-07-31T09:29:49.272Z,72.32
2022-07-31T09:32:19.742Z,75.77
2022-07-31T09:34:48.650Z,73.57
2022-07-31T09:37:18.495Z,75.65
2022-07-31T09:39:52.344Z,73.95
2022-07-31T09:42:21.312Z,73.29
2022-07-31T09:44:50.149Z,75.49
2022-07-31T09:47:23.418Z,76.37
2022-07-31T09:49:55.737Z,72.70
2022-07-31T09:52:24.238Z,75.63
2022-07-31T09:55:02.078Z,71.00
2022-07-31T09:57:30.488Z,74.00
2022-07-31T09:59:58.458Z,70.23
2022-07-31T10:02:28.718Z,70.20
2022-07-31T10:04:58.187Z,68.86
2022-07-31T10:07:32.348Z,68.66
2022-07-31T10:10:01.998Z,70.50
2022-07-31T10:12:30.854Z,74.00
2022-07-31T10:15:03.244Z,67.24
2022-07-31T10:17:36.177Z,66.21
2022-07-31T10:20:06.567Z,66.89
2022-07-31T10:22:37.060Z,64.91
2022-07-31T10:25:05.272Z,64.74
2022-07-31T10:27:33.750Z,65.98
2022-07-31T10:30:09.085Z,64.23
2022-07-31T10:32:38.463Z,71.62
2022-07-31T10:35:07.624Z,66.12
2022-07-31T10:37:41.215Z,64.00
2022-07-31T10:40:15.255Z,63.81
2022-07-31T10:42:57.096Z,66.27
2022-07-31T10:45:25.361Z,61.13
2022-07-31T10:47:59.288Z,61.88
2022-07-31T10:50:29.635Z,60.01
2022-07-31T10:53:08.659Z,59.45
2022-07-31T10:55:36.734Z,62.85
2022-07-31T10:58:09.666Z,58.78
2022-07-31T11:00:38.016Z,58.92
2022-07-31T11:03:21.028Z,56.98
2022-07-31T11:06:02.108Z,59.45
2022-07-31T11:08:42.042Z,56.95
2022-07-31T11:11:10.641Z,57.81
2022-07-31T11:13:49.247Z,55.19
2022-07-31T11:16:17.470Z,56.70
2022-07-31T11:18:57.972Z,56.12
2022-07-31T11:21:39.974Z,57.88
2022-07-31T11:24:15.748Z,56.54
2022-07-31T11:26:49.626Z,59.09
2022-07-31T11:30:00.451Z,56.97
2022-07-31T11:32:17.050Z,61.50
2022-07-31T11:34:55.771Z,58.51
2022-07-31T11:37:24.876Z,63.03
2022-07-31T11:39:53.939Z,56.62
2022-07-31T11:42:26.479Z,56.44
2022-07-31T11:45:10.761Z,58.86
2022-07-31T11:48:12.842Z,59.43
2022-07-31T11:50:30.990Z,56.32
2022-07-31T11:53:04.292Z,57.66
2022-07-31T11:55:32.462Z,54.27
2022-07-31T11:58:00.374Z,52.47
2022-07-31T12:00:30.202Z,54.20
2022-07-31T12:02:58.792Z,54.69
2022-07-31T12:05:39.130Z,55.08
2022-07-31T12:08:07.984Z,61.34
2022-07-31T12:10:36.188Z,57.36
2022-07-31T12:13:04.196Z,56.09
2022-07-31T12:15:32.302Z,57.47
2022-07-31T12:18:05.240Z,57.98
2022-07-31T12:20:36.971Z,61.38
2022-07-31T12:23:07.055Z,59.41
2022-07-31T12:25:55.159Z,60.03
2022-07-31T12:28:23.153Z,60.31
2022-07-31T12:30:59.697Z,62.74
2022-07-31T12:33:28.574Z,62.04
2022-07-31T12:35:57.915Z,63.26
2022-07-31T12:38:45.263Z,61.98
2022-07-31T12:41:14.984Z,63.62
2022-07-31T12:43:51.574Z,61.68
2022-07-31T12:46:24.165Z,62.15
2022-07-31T12:48:52.309Z,61.06
2022-07-31T12:51:45.207Z,60.81
2022-07-31T12:54:10.239Z,62.89
2022-07-31T12:56:39.500Z,64.16
2022-07-31T12:59:08.073Z,64.21
2022-07-31T13:01:36.897Z,65.89
2022-07-31T13:04:08.019Z,64.29
2022-07-31T13:06:51.382Z,61.85
2022-07-31T13:09:19.737Z,61.71
2022-07-31T13:11:48.453Z,62.95
2022-07-31T13:14:17.083Z,63.20
2022-07-31T13:16:45.209Z,62.18
2022-07-31T13:19:14.056Z,61.75
2022-07-31T13:21:49.260Z,61.31
2022-07-31T13:24:19.844Z,62.42
2022-07-31T13:26:47.960Z,62.94
2022-07-31T13:29:16.016Z,63.67
2022-07-31T13:31:44.361Z,63.68
2022-07-31T13:34:13.252Z,63.98
2022-07-31T13:36:41.257Z,63.60
2022-07-31T13:39:09.385Z,65.15
2022-07-31T13:41:39.482Z,66.60
2022-07-31T13:44:08.154Z,65.40
2022-07-31T13:46:36.093Z,65.21
2022-07-31T13:49:08.413Z,65.10
2022-07-31T13:51:37.099Z,67.45
2022-07-31T13:54:05.261Z,67.33
2022-07-31T13:56:41.209Z,66.26
2022-07-31T13:59:14.256Z,67.88
2022-07-31T14:02:04.829Z,69.46
2022-07-31T14:04:32.941Z,70.93
2022-07-31T14:07:07.392Z,75.76
2022-07-31T14:09:36.088Z,83.39
2022-07-31T14:12:05.863Z,82.10
2022-07-31T14:14:35.443Z,85.89
2022-07-31T14:17:03.381Z,92.49
2022-07-31T14:19:43.824Z,95.08
2022-07-31T14:22:13.974Z,100.00
2022-07-31T14:24:49.849Z,93.44
2022-07-31T14:27:20.522Z,100.00
2022-07-31T14:29:50.024Z,100.00
2022-07-31T14:32:19.277Z,100.00
2022-07-31T14:34:47.295Z,100.00
2022-07-31T14:37:15.261Z,100.00
2022-07-31T14:39:43.352Z,100.00
2022-07-31T14:42:12.307Z,100.00
2022-07-31T14:44:42.272Z,100.00
2022-07-31T14:47:12.596Z,100.00
2022-07-31T14:50:06.713Z,100.00
2022-07-31T14:52:29.549Z,100.00
2022-07-31T14:54:59.066Z,100.00
2022-07-31T14:57:27.070Z,100.00
2022-07-31T14:59:55.664Z,100.00
2022-07-31T15:02:24.989Z,100.00
2022-07-31T15:04:53.479Z,100.00
2022-07-31T15:07:41.214Z,100.00
2022-07-31T15:10:11.574Z,100.00
2022-07-31T15:12:39.554Z,100.00
2022-07-31T15:15:08.806Z,100.00
2022-07-31T15:17:38.187Z,100.00
2022-07-31T15:20:06.902Z,100.00
2022-07-31T15:22:34.918Z,100.00
2022-07-31T15:25:02.883Z,100.00
2022-07-31T15:27:30.814Z,100.00
2022-07-31T15:30:00.465Z,100.00
2022-07-31T15:32:37.483Z,100.00
2022-07-31T15:35:07.073Z,100.00
2022-07-31T15:37:36.465Z,100.00
2022-07-31T15:40:06.401Z,100.00
2022-07-31T15:42:37.639Z,100.00
2022-07-31T15:45:06.598Z,100.00
2022-07-31T15:47:34.534Z,100.00
2022-07-31T15:50:04.009Z,100.00
2022-07-31T15:52:32.056Z,100.00
2022-07-31T15:55:00.107Z,100.00
2022-07-31T15:57:28.075Z,100.00
2022-07-31T15:59:56.185Z,100.00
2022-07-31T16:02:24.579Z,100.00
2022-07-31T16:04:54.842Z,100.00
2022-07-31T16:08:33.190Z,100.00
2022-07-31T16:10:18.432Z,100.00
2022-07-31T16:12:46.683Z,100.00
2022-07-31T16:15:15.281Z,100.00
2022-07-31T16:17:44.235Z,100.00
2022-07-31T16:20:20.890Z,100.00
2022-07-31T16:22:58.324Z,100.00
2022-07-31T16:25:27.243Z,100.00
2022-07-31T16:27:55.375Z,100.00
2022-07-31T16:30:26.253Z,100.00
2022-07-31T16:32:54.597Z,100.00
2022-07-31T16:35:22.701Z,100.00
2022-07-31T16:37:53.331Z,100.00
2022-07-31T16:40:29.383Z,100.00
2022-07-31T16:43:02.046Z,100.00
2022-07-31T16:45:31.028Z,100.00
2022-07-31T16:47:59.191Z,100.00
2022-07-31T16:50:27.489Z,100.00
2022-07-31T16:52:55.600Z,100.00
2022-07-31T16:56:01.119Z,100.00
2022-07-31T16:58:15.242Z,100.00
2022-07-31T17:00:43.328Z,100.00
2022-07-31T17:03:31.072Z,100.00
2022-07-31T17:05:59.255Z,100.00
2022-07-31T17:08:28.886Z,100.00
2022-07-31T17:10:58.261Z,100.00
2022-07-31T17:13:26.206Z,100.00
2022-07-31T17:15:54.147Z,100.00
2022-07-31T17:18:25.377Z,100.00
2022-07-31T17:20:55.931Z,100.00
2022-07-31T17:23:43.365Z,100.00
2022-07-31T17:26:20.995Z,100.00
2022-07-31T17:28:50.364Z,100.00
2022-07-31T17:31:18.430Z,100.00
2022-07-31T17:33:54.558Z,100.00
2022-07-31T17:36:29.000Z,100.00
2022-07-31T17:38:57.191Z,100.00
2022-07-31T17:41:26.867Z,100.00
2022-07-31T17:43:55.014Z,100.00
2022-07-31T17:46:28.365Z,100.00
2022-07-31T17:49:02.901Z,100.00
2022-07-31T17:51:30.892Z,100.00
2022-07-31T17:54:00.455Z,100.00
2022-07-31T17:56:30.074Z,100.00
2022-07-31T17:59:04.263Z,100.00
2022-07-31T18:01:33.165Z,100.00
2022-07-31T18:04:01.198Z,100.00
2022-07-31T18:06:29.246Z,100.00
2022-07-31T18:08:59.195Z,100.00
2022-07-31T18:11:27.250Z,100.00
2022-07-31T18:14:00.889Z,100.00
2022-07-31T18:16:31.457Z,100.00
2022-07-31T18:18:59.430Z,100.00
2022-07-31T18:21:27.402Z,100.00
2022-07-31T18:23:55.375Z,100.00
2022-07-31T18:26:23.632Z,100.00
2022-07-31T18:28:51.977Z,100.00
2022-07-31T18:31:31.798Z,100.00
2022-07-31T18:34:03.637Z,100.00
2022-07-31T18:36:31.685Z,100.00
2022-07-31T18:38:59.711Z,100.00
2022-07-31T18:41:27.800Z,100.00
2022-07-31T18:43:55.742Z,100.00
2022-07-31T18:46:25.716Z,100.00
2022-07-31T18:48:55.874Z,100.00
2022-07-31T18:51:24.944Z,100.00
2022-07-31T18:53:54.504Z,100.00
2022-07-31T18:56:23.371Z,100.00
2022-07-31T18:58:51.349Z,100.00
2022-07-31T19:01:19.456Z,100.00
2022-07-31T19:03:49.086Z,100.00
2022-07-31T19:06:17.374Z,100.00
2022-07-31T19:08:46.090Z,100.00
2022-07-31T19:11:14.053Z,100.00
2022-07-31T19:13:42.114Z,100.00
2022-07-31T19:16:10.148Z,100.00
2022-07-31T19:18:40.349Z,100.00
2022-07-31T19:21:23.086Z,100.00
2022-07-31T19:23:57.961Z,100.00
2022-07-31T19:26:25.965Z,100.00
2022-07-31T19:28:53.882Z,100.00
2022-07-31T19:31:22.070Z,100.00
2022-07-31T19:33:50.069Z,100.00
2022-07-31T19:36:20.038Z,100.00
2022-07-31T19:38:48.018Z,100.00
2022-07-31T19:41:16.065Z,100.00
2022-07-31T19:43:45.763Z,100.00
2022-07-31T19:46:13.761Z,100.00
2022-07-31T19:48:42.691Z,100.00
2022-07-31T19:51:10.892Z,100.00
2022-07-31T19:53:40.463Z,100.00
2022-07-31T19:56:08.837Z,100.00
2022-07-31T19:58:37.652Z,100.00
2022-07-31T20:01:06.782Z,100.00
2022-07-31T20:03:35.352Z,100.00
2022-07-31T20:06:03.727Z,100.00
2022-07-31T20:08:33.223Z,100.00
2022-07-31T20:11:04.519Z,100.00
2022-07-31T20:13:32.992Z,100.00
2022-07-31T20:16:01.486Z,100.00
2022-07-31T20:18:30.598Z,100.00
2022-07-31T20:21:00.894Z,100.00
2022-07-31T20:23:29.474Z,100.00
2022-07-31T20:25:57.520Z,100.00
2022-07-31T20:28:28.471Z,100.00
2022-07-31T20:30:56.511Z,100.00
2022-07-31T20:33:24.741Z,100.00
2022-07-31T20:35:52.700Z,100.00
2022-07-31T20:38:20.811Z,100.00
2022-07-31T20:40:53.689Z,100.00
2022-07-31T20:43:23.396Z,100.00
2022-07-31T20:45:53.084Z,100.00
2022-07-31T20:48:24.146Z,100.00
2022-07-31T20:50:53.009Z,100.00
2022-07-31T20:53:22.076Z,100.00
2022-07-31T20:55:50.628Z,100.00
2022-07-31T20:58:18.897Z,100.00
2022-07-31T21:00:47.632Z,100.00
2022-07-31T21:03:17.553Z,100.00
2022-07-31T21:05:45.664Z,100.00
2022-07-31T21:08:13.711Z,100.00
2022-07-31T21:10:42.128Z,100.00
2022-07-31T21:13:10.411Z,100.00
2022-07-31T21:15:42.580Z,100.00
2022-07-31T21:18:13.260Z,100.00
2022-07-31T21:20:51.040Z,100.00
2022-07-31T21:23:22.207Z,100.00
2022-07-31T21:25:50.832Z,100.00
2022-07-31T21:28:19.413Z,100.00
2022-07-31T21:30:47.818Z,100.00
2022-07-31T21:33:16.255Z,100.00
2022-07-31T21:35:46.404Z,100.00
2022-07-31T21:38:15.805Z,100.00
2022-07-31T21:40:44.563Z,100.00
2022-07-31T21:43:16.816Z,100.00
2022-07-31T21:45:54.772Z,100.00
2022-07-31T21:48:25.303Z,100.00
2022-07-31T21:50:55.946Z,100.00
2022-07-31T21:53:24.760Z,100.00
2022-07-31T21:55:53.092Z,100.00
2022-07-31T21:58:21.146Z,100.00
2022-07-31T22:00:49.565Z,100.00
2022-07-31T22:03:17.559Z,100.00
2022-07-31T22:06:02.805Z,100.00
2022-07-31T22:08:32.168Z,100.00
2022-07-31T22:11:00.093Z,100.00
2022-07-31T22:13:28.116Z,100.00
2022-07-31T22:16:00.678Z,100.00
2022-07-31T22:18:29.664Z,100.00
2022-07-31T22:20:58.129Z,100.00
2022-07-31T22:23:28.438Z,100.00
2022-07-31T22:25:58.171Z,100.00
2022-07-31T22:28:26.955Z,100.00
2022-07-31T22:30:55.731Z,100.00
2022-07-31T22:33:24.217Z,100.00
2022-07-31T22:36:00.337Z,100.00
2022-07-31T22:38:30.233Z,100.00
2022-07-31T22:41:00.329Z,100.00
2022-07-31T22:44:13.707Z,100.00
2022-07-31T22:46:16.912Z,100.00
2022-07-31T22:48:46.776Z,100.00
2022-07-31T22:51:15.646Z,100.00
2022-07-31T22:53:44.210Z,100.00
2022-07-31T22:56:13.610Z,100.00
2022-07-31T22:58:41.529Z,100.00
2022-07-31T23:01:09.455Z,100.00
2022-07-31T23:03:37.426Z,100.00
2022-07-31T23:06:31.666Z,100.00
2022-07-31T23:08:55.132Z,100.00
2022-07-31T23:11:24.885Z,100.00
2022-07-31T23:13:53.001Z,100.00
2022-07-31T23:16:21.357Z,100.00
2022-07-31T23:18:49.426Z,100.00
2022-07-31T23:21:17.424Z,100.00
2022-07-31T23:23:48.535Z,100.00
2022-07-31T23:26:18.442Z,100.00
2022-07-31T23:28:47.917Z,100.00
2022-07-31T23:31:15.987Z,100.00
2022-07-31T23:33:44.459Z,100.00
2022-07-31T23:36:12.771Z,100.00
2022-07-31T23:38:40.998Z,100.00
2022-07-31T23:41:09.586Z,100.00
2022-07-31T23:43:36.686Z,100.00
2022-07-31T23:46:06.574Z,100.00
2022-07-31T23:48:35.971Z,100.00
2022-07-31T23:51:04.090Z,100.00
2022-07-31T23:53:32.058Z,100.00
2022-07-31T23:56:00.021Z,100.00
2022-07-31T23:58:27.933Z,100.00
